createdAt,value
2022-08-25T00:00:44.149Z,2.10
2022-08-25T00:05:51.462Z,2.20
2022-08-25T00:11:03.238Z,2.58
2022-08-25T00:16:08.657Z,2.10
2022-08-25T00:21:16.591Z,2.03
2022-08-25T00:26:21.013Z,2.47
2022-08-25T00:31:37.917Z,2.30
2022-08-25T00:36:43.327Z,2.22
2022-08-25T00:41:50.329Z,2.35
2022-08-25T00:46:55.170Z,2.10
2022-08-25T00:52:10.950Z,2.20
2022-08-25T00:57:34.508Z,2.38
2022-08-25T01:02:40.069Z,2.85
2022-08-25T01:07:44.642Z,2.60
2022-08-25T01:12:46.682Z,2.75
2022-08-25T01:17:50.893Z,2.78
2022-08-25T01:22:55.539Z,2.58
2022-08-25T01:28:03.233Z,2.78
2022-08-25T01:33:09.946Z,2.80
2022-08-25T01:38:15.301Z,2.88
2022-08-25T01:43:35.980Z,3.00
2022-08-25T01:48:44.255Z,3.05
2022-08-25T01:53:46.015Z,3.13
2022-08-25T01:58:51.221Z,3.20
2022-08-25T02:03:56.713Z,3.28
2022-08-25T02:09:02.579Z,3.20
2022-08-25T02:14:09.800Z,3.40
2022-08-25T02:19:15.562Z,3.20
2022-08-25T02:24:17.301Z,3.20
2022-08-25T02:29:20.058Z,3.53
2022-08-25T02:34:24.313Z,3.58
2022-08-25T02:39:26.258Z,3.60
2022-08-25T02:44:31.741Z,3.75
2022-08-25T02:49:33.600Z,3.47
2022-08-25T02:54:36.323Z,3.38
2022-08-25T02:59:39.235Z,3.50
2022-08-25T03:04:41.056Z,3.55
2022-08-25T03:09:48.520Z,4.00
2022-08-25T03:14:54.986Z,4.15
2022-08-25T03:19:57.754Z,4.60
2022-08-25T03:25:23.882Z,4.95
2022-08-25T03:30:29.475Z,4.22
2022-08-25T03:35:35.937Z,4.68
2022-08-25T03:40:39.957Z,4.97
2022-08-25T03:45:46.089Z,4.85
2022-08-25T03:50:54.396Z,5.40
2022-08-25T03:55:57.742Z,5.63
2022-08-25T04:01:00.650Z,5.88
2022-08-25T04:06:04.316Z,6.07
2022-08-25T04:11:17.784Z,6.07
2022-08-25T04:16:22.015Z,5.70
2022-08-25T04:21:29.409Z,6.43
2022-08-25T04:26:39.165Z,5.50
2022-08-25T04:31:42.782Z,6.70
2022-08-25T04:36:47.283Z,6.15
2022-08-25T04:41:54.495Z,6.22
2022-08-25T04:47:04.698Z,6.80
2022-08-25T04:52:12.978Z,6.55
2022-08-25T04:57:16.152Z,6.70
2022-08-25T05:02:25.291Z,7.03
2022-08-25T05:07:27.277Z,7.53
2022-08-25T05:12:29.065Z,6.85
2022-08-25T05:17:30.864Z,7.85
2022-08-25T05:22:35.061Z,6.97
2022-08-25T05:27:39.039Z,7.75
2022-08-25T05:32:45.591Z,7.80
2022-08-25T05:37:51.653Z,7.65
2022-08-25T05:42:56.843Z,7.57
2022-08-25T05:47:58.645Z,7.07
2022-08-25T05:53:00.451Z,9.05
2022-08-25T05:58:05.245Z,9.38
2022-08-25T06:03:08.056Z,8.32
2022-08-25T06:08:12.196Z,8.50
2022-08-25T06:13:18.824Z,8.13
2022-08-25T06:18:31.111Z,8.23
2022-08-25T06:23:35.077Z,9.32
2022-08-25T06:28:39.200Z,9.13
2022-08-25T06:33:40.985Z,8.80
2022-08-25T06:38:47.611Z,9.25
2022-08-25T06:43:55.945Z,9.85
2022-08-25T06:49:06.751Z,8.77
2022-08-25T06:54:10.988Z,8.13
2022-08-25T06:59:12.897Z,8.88
2022-08-25T07:04:23.298Z,9.20
2022-08-25T07:09:29.970Z,8.25
2022-08-25T07:14:36.395Z,9.20
2022-08-25T07:19:38.225Z,9.45
2022-08-25T07:24:45.506Z,9.93
2022-08-25T07:29:50.087Z,10.02
2022-08-25T07:35:13.839Z,9.80
2022-08-25T07:40:23.874Z,9.30
2022-08-25T07:45:32.736Z,8.77
2022-08-25T07:50:35.598Z,7.85
2022-08-25T07:55:38.068Z,7.63
2022-08-25T08:00:43.326Z,8.40
2022-08-25T08:05:49.054Z,8.15
2022-08-25T08:11:05.537Z,8.70
2022-08-25T08:16:13.948Z,8.43
2022-08-25T08:21:26.843Z,9.07
2022-08-25T08:26:55.230Z,9.20
2022-08-25T08:31:56.849Z,9.05
2022-08-25T08:36:59.374Z,8.20
2022-08-25T08:42:19.783Z,8.40
2022-08-25T08:47:43.144Z,7.90
2022-08-25T08:53:01.363Z,8.90
2022-08-25T08:58:10.707Z,7.35
2022-08-25T09:03:40.398Z,8.93
2022-08-25T09:08:44.974Z,7.70
2022-08-25T09:14:13.590Z,8.20
2022-08-25T09:19:41.783Z,7.85
2022-08-25T09:25:39.685Z,7.70
2022-08-25T09:30:50.627Z,8.15
2022-08-25T09:35:57.549Z,6.95
2022-08-25T09:41:03.856Z,7.70
2022-08-25T09:46:20.739Z,7.15
2022-08-25T09:51:42.951Z,7.35
2022-08-25T09:57:05.471Z,6.97
2022-08-25T10:02:28.986Z,6.88
2022-08-25T10:07:39.884Z,6.28
2022-08-25T10:12:44.753Z,6.50
2022-08-25T10:17:56.588Z,6.30
2022-08-25T10:23:18.977Z,6.28
2022-08-25T10:28:38.421Z,6.10
2022-08-25T10:34:02.035Z,5.88
2022-08-25T10:39:31.575Z,5.80
2022-08-25T10:45:23.434Z,5.88
2022-08-25T10:50:49.078Z,5.82
2022-08-25T10:56:21.007Z,5.60
2022-08-25T11:01:43.745Z,5.40
2022-08-25T11:07:04.788Z,5.70
2022-08-25T11:12:13.601Z,5.20
2022-08-25T11:17:18.699Z,5.57
2022-08-25T11:22:46.623Z,5.32
2022-08-25T11:27:50.293Z,5.05
2022-08-25T11:32:55.693Z,5.30
2022-08-25T11:38:09.111Z,5.20
2022-08-25T11:43:35.996Z,5.20
2022-08-25T11:48:53.217Z,4.90
2022-08-25T11:54:24.766Z,4.95
2022-08-25T11:59:50.321Z,4.85
2022-08-25T12:04:55.603Z,4.55
2022-08-25T12:10:03.268Z,4.05
2022-08-25T12:15:20.621Z,4.63
2022-08-25T12:20:54.907Z,4.72
2022-08-25T12:26:12.597Z,3.90
2022-08-25T12:31:59.130Z,4.60
2022-08-25T12:37:15.907Z,4.40
2022-08-25T12:42:37.942Z,4.30
2022-08-25T12:47:47.414Z,3.92
2022-08-25T12:52:49.378Z,4.15
2022-08-25T12:57:58.719Z,4.43
2022-08-25T13:03:27.736Z,5.22
2022-08-25T13:08:46.656Z,4.22
2022-08-25T13:13:55.364Z,3.90
2022-08-25T13:18:59.560Z,4.47
2022-08-25T13:24:05.890Z,4.05
2022-08-25T13:29:10.829Z,4.68
2022-08-25T13:34:23.931Z,4.55
2022-08-25T13:39:55.415Z,5.57
2022-08-25T13:45:01.379Z,5.40
2022-08-25T13:50:33.815Z,4.70
2022-08-25T13:55:51.236Z,4.85
2022-08-25T14:01:47.747Z,4.43
2022-08-25T14:06:48.942Z,4.63
2022-08-25T14:11:59.508Z,4.80
2022-08-25T14:17:28.618Z,4.47
2022-08-25T14:22:34.619Z,3.80
2022-08-25T14:28:05.349Z,4.10
2022-08-25T14:33:09.691Z,4.15
2022-08-25T14:38:12.155Z,4.20
2022-08-25T14:43:17.131Z,4.38
2022-08-25T14:48:27.381Z,4.28
2022-08-25T14:53:33.314Z,4.10
2022-08-25T14:58:51.123Z,4.68
2022-08-25T15:03:58.243Z,4.75
2022-08-25T15:09:11.310Z,4.38
2022-08-25T15:14:17.482Z,4.45
2022-08-25T15:19:23.528Z,4.38
2022-08-25T15:24:28.699Z,3.80
2022-08-25T15:29:31.914Z,4.28
2022-08-25T15:34:37.194Z,4.22
2022-08-25T15:39:43.264Z,4.55
2022-08-25T15:44:53.550Z,4.30
2022-08-25T15:50:04.541Z,4.45
2022-08-25T15:55:10.707Z,4.25
2022-08-25T16:00:16.762Z,4.00
2022-08-25T16:05:26.269Z,3.78
2022-08-25T16:10:31.301Z,4.07
2022-08-25T16:15:38.987Z,4.07
2022-08-25T16:20:46.368Z,4.25
2022-08-25T16:25:58.215Z,3.85
2022-08-25T16:31:03.843Z,4.30
2022-08-25T16:36:16.837Z,4.50
2022-08-25T16:41:26.089Z,4.22
2022-08-25T16:46:30.467Z,4.13
2022-08-25T16:51:37.526Z,4.30
2022-08-25T16:56:42.237Z,4.40
2022-08-25T17:01:47.224Z,3.90
2022-08-25T17:06:56.238Z,4.78
2022-08-25T17:12:05.153Z,4.65
2022-08-25T17:17:07.386Z,3.97
2022-08-25T17:22:14.257Z,4.35
2022-08-25T17:27:19.163Z,4.20
2022-08-25T17:32:28.848Z,4.65
2022-08-25T17:37:32.093Z,4.70
2022-08-25T17:42:36.187Z,4.30
2022-08-25T17:47:40.399Z,4.40
2022-08-25T17:52:42.331Z,4.45
2022-08-25T17:57:44.097Z,4.50
2022-08-25T18:02:52.354Z,4.50
2022-08-25T18:07:54.422Z,4.00
2022-08-25T18:13:02.074Z,4.82
2022-08-25T18:18:04.918Z,4.30
2022-08-25T18:23:09.694Z,4.40
2022-08-25T18:28:12.081Z,4.35
2022-08-25T18:33:14.482Z,4.10
2022-08-25T18:38:37.556Z,4.40
2022-08-25T18:43:41.851Z,4.57
2022-08-25T18:48:47.529Z,4.35
2022-08-25T18:53:54.701Z,4.35
2022-08-25T18:59:07.811Z,4.47
2022-08-25T19:04:11.788Z,4.75
2022-08-25T19:09:15.952Z,4.60
2022-08-25T19:14:20.239Z,4.40
2022-08-25T19:19:24.308Z,4.28
2022-08-25T19:24:29.800Z,4.40
2022-08-25T19:29:35.037Z,4.28
2022-08-25T19:34:42.068Z,4.40
2022-08-25T19:39:52.928Z,4.50
2022-08-25T19:44:55.609Z,4.47
2022-08-25T19:49:58.523Z,5.22
2022-08-25T19:55:05.551Z,4.70
2022-08-25T20:00:14.176Z,4.95
2022-08-25T20:05:23.591Z,5.28
2022-08-25T20:10:28.312Z,4.75
2022-08-25T20:15:34.372Z,4.63
2022-08-25T20:20:44.289Z,4.40
2022-08-25T20:25:46.061Z,4.93
2022-08-25T20:30:47.906Z,4.45
2022-08-25T20:35:50.808Z,4.78
2022-08-25T20:40:55.032Z,4.43
2022-08-25T20:46:01.517Z,4.25
2022-08-25T20:51:07.518Z,4.70
2022-08-25T20:56:16.634Z,4.60
2022-08-25T21:01:24.149Z,5.22
2022-08-25T21:06:28.427Z,5.65
2022-08-25T21:11:35.216Z,4.18
2022-08-25T21:16:38.209Z,4.95
2022-08-25T21:21:40.499Z,4.47
2022-08-25T21:26:48.814Z,4.60
2022-08-25T21:31:54.023Z,4.82
2022-08-25T21:37:04.458Z,4.53
2022-08-25T21:47:11.452Z,4.90
2022-08-25T21:52:17.731Z,4.38
2022-08-25T21:57:23.796Z,4.97
2022-08-25T22:02:29.935Z,4.68
2022-08-25T22:07:34.622Z,5.13
2022-08-25T22:12:42.077Z,5.05
2022-08-25T22:17:48.191Z,5.15
2022-08-25T22:22:52.560Z,5.13
2022-08-25T22:27:56.667Z,5.18
2022-08-25T22:32:59.842Z,5.57
2022-08-25T22:38:04.863Z,5.75
2022-08-25T22:43:10.950Z,5.68
2022-08-25T22:48:12.867Z,4.95
2022-08-25T22:53:15.444Z,5.70
2022-08-25T22:58:17.155Z,5.47
2022-08-25T23:03:22.221Z,5.18
2022-08-25T23:08:39.186Z,5.53
2022-08-25T23:13:47.390Z,5.10
2022-08-25T23:18:53.931Z,5.18
2022-08-25T23:23:58.589Z,5.15
2022-08-25T23:29:00.653Z,5.53
2022-08-25T23:34:05.552Z,6.15
2022-08-25T23:39:09.800Z,5.82
2022-08-25T23:44:17.191Z,5.80
2022-08-25T23:49:24.251Z,5.60
2022-08-25T23:54:31.854Z,6.18
2022-08-25T23:59:34.371Z,5.78
